createdAt,value
2023-04-27T00:01:38.709Z,58.24
2023-04-27T00:04:05.947Z,58.49
2023-04-27T00:06:33.113Z,58.45
2023-04-27T00:09:00.523Z,58.14
2023-04-27T00:11:27.396Z,58.11
2023-04-27T00:13:54.336Z,58.74
2023-04-27T00:16:21.251Z,58.59
2023-04-27T00:18:48.258Z,58.50
2023-04-27T00:21:15.188Z,58.36
2023-04-27T00:23:42.104Z,58.97
2023-04-27T00:26:09.017Z,58.26
2023-04-27T00:28:36.051Z,58.36
2023-04-27T00:31:02.981Z,58.73
2023-04-27T00:33:30.155Z,57.91
2023-04-27T00:36:00.888Z,58.11
2023-04-27T00:38:28.812Z,57.92
2023-04-27T00:41:03.148Z,58.43
2023-04-27T00:43:30.289Z,58.19
2023-04-27T00:45:57.603Z,57.88
2023-04-27T00:48:26.468Z,57.64
2023-04-27T00:50:53.383Z,57.66
2023-04-27T00:53:20.584Z,58.04
2023-04-27T00:55:49.539Z,57.90
2023-04-27T00:58:16.448Z,57.74
2023-04-27T01:00:43.772Z,57.98
2023-04-27T01:03:11.035Z,58.21
2023-04-27T01:05:39.236Z,58.25
2023-04-27T01:08:07.944Z,58.74
2023-04-27T01:10:34.894Z,58.24
2023-04-27T01:13:02.434Z,57.96
2023-04-27T01:15:31.981Z,58.09
2023-04-27T01:17:59.943Z,58.31
2023-04-27T01:20:28.824Z,58.95
2023-04-27T01:22:56.830Z,58.77
2023-04-27T01:25:23.786Z,58.16
2023-04-27T01:27:50.731Z,58.62
2023-04-27T01:30:17.799Z,57.86
2023-04-27T01:32:44.885Z,58.21
2023-04-27T01:35:11.816Z,58.83
2023-04-27T01:37:38.914Z,58.81
2023-04-27T01:40:06.553Z,58.91
2023-04-27T01:42:33.553Z,58.51
2023-04-27T01:45:00.571Z,59.14
2023-04-27T01:47:28.200Z,58.67
2023-04-27T01:49:55.068Z,59.35
2023-04-27T01:52:21.989Z,58.86
2023-04-27T01:54:49.012Z,58.95
2023-04-27T01:57:16.085Z,59.09
2023-04-27T01:59:43.187Z,58.20
2023-04-27T02:02:10.274Z,59.02
2023-04-27T02:04:37.274Z,58.46
2023-04-27T02:07:04.293Z,58.54
2023-04-27T02:09:31.307Z,59.02
2023-04-27T02:11:58.320Z,58.75
2023-04-27T02:14:26.041Z,58.54
2023-04-27T02:16:52.963Z,58.95
2023-04-27T02:19:19.807Z,58.20
2023-04-27T02:21:46.742Z,58.31
2023-04-27T02:24:13.688Z,58.22
2023-04-27T02:26:40.923Z,58.26
2023-04-27T02:29:08.322Z,58.51
2023-04-27T02:31:36.405Z,57.81
2023-04-27T02:34:03.264Z,57.68
2023-04-27T02:36:30.221Z,57.95
2023-04-27T02:38:57.180Z,57.49
2023-04-27T02:41:24.423Z,57.54
2023-04-27T02:43:51.299Z,57.39
2023-04-27T02:46:18.363Z,56.93
2023-04-27T02:48:45.294Z,56.64
2023-04-27T02:51:12.306Z,56.29
2023-04-27T02:53:39.200Z,55.75
2023-04-27T02:56:06.315Z,55.19
2023-04-27T02:58:33.162Z,55.97
2023-04-27T03:01:00.283Z,55.19
2023-04-27T03:03:27.332Z,51.42
2023-04-27T03:05:54.397Z,47.69
2023-04-27T03:08:21.366Z,45.41
2023-04-27T03:10:48.389Z,43.71
2023-04-27T03:13:15.340Z,41.43
2023-04-27T03:15:43.901Z,41.09
2023-04-27T03:18:10.972Z,39.43
2023-04-27T03:20:37.917Z,38.66
2023-04-27T03:23:04.817Z,37.51
2023-04-27T03:25:31.717Z,36.28
2023-04-27T03:27:58.663Z,34.81
2023-04-27T03:30:25.704Z,34.65
2023-04-27T03:32:52.704Z,33.20
2023-04-27T03:35:19.728Z,32.59
2023-04-27T03:37:46.653Z,32.12
2023-04-27T03:40:14.029Z,31.33
2023-04-27T03:42:41.141Z,30.66
2023-04-27T03:45:08.997Z,30.09
2023-04-27T03:47:35.882Z,29.45
2023-04-27T03:50:02.921Z,28.76
2023-04-27T03:52:29.826Z,28.98
2023-04-27T03:54:56.718Z,28.91
2023-04-27T03:57:23.634Z,28.91
2023-04-27T03:59:50.622Z,28.37
2023-04-27T04:02:17.581Z,28.37
2023-04-27T04:04:44.914Z,28.14
2023-04-27T04:07:11.964Z,28.18
2023-04-27T04:09:39.814Z,27.67
2023-04-27T04:12:10.131Z,28.15
2023-04-27T04:14:38.835Z,27.92
2023-04-27T04:17:05.900Z,28.12
2023-04-27T04:19:34.102Z,27.93
2023-04-27T04:22:01.354Z,28.14
2023-04-27T04:24:28.927Z,28.61
2023-04-27T04:26:55.774Z,28.92
2023-04-27T04:29:22.819Z,29.02
2023-04-27T04:31:49.827Z,29.14
2023-04-27T04:34:16.950Z,29.49
2023-04-27T04:36:43.864Z,30.26
2023-04-27T04:39:10.868Z,30.30
2023-04-27T04:41:37.732Z,30.38
2023-04-27T04:44:04.988Z,30.79
2023-04-27T04:46:32.019Z,30.81
2023-04-27T04:48:59.089Z,31.16
2023-04-27T04:51:26.099Z,31.68
2023-04-27T04:53:53.177Z,32.75
2023-04-27T04:56:20.137Z,32.58
2023-04-27T04:58:47.277Z,33.62
2023-04-27T05:01:14.276Z,33.75
2023-04-27T05:03:42.130Z,34.36
2023-04-27T05:06:09.252Z,34.44
2023-04-27T05:08:36.309Z,34.41
2023-04-27T05:11:03.254Z,34.16
2023-04-27T05:13:30.216Z,34.83
2023-04-27T05:15:57.082Z,34.80
2023-04-27T05:18:24.230Z,35.47
2023-04-27T05:20:51.477Z,34.66
2023-04-27T05:23:18.462Z,34.57
2023-04-27T05:25:45.346Z,34.07
2023-04-27T05:28:12.319Z,34.30
2023-04-27T05:30:39.251Z,34.07
2023-04-27T05:33:06.616Z,34.45
2023-04-27T05:35:33.940Z,34.87
2023-04-27T05:38:01.008Z,34.73
2023-04-27T05:40:28.254Z,33.46
2023-04-27T05:42:55.196Z,32.36
2023-04-27T05:45:22.176Z,33.49
2023-04-27T05:47:51.512Z,32.74
2023-04-27T05:50:18.454Z,32.36
2023-04-27T05:52:45.448Z,32.63
2023-04-27T05:55:12.371Z,32.51
2023-04-27T05:57:39.763Z,32.50
2023-04-27T06:00:07.926Z,30.75
2023-04-27T06:02:39.380Z,30.84
2023-04-27T06:05:07.059Z,30.90
2023-04-27T06:07:34.118Z,30.57
2023-04-27T06:10:01.037Z,30.65
2023-04-27T06:12:27.904Z,30.50
2023-04-27T06:14:54.907Z,29.83
2023-04-27T06:17:22.196Z,30.35
2023-04-27T06:19:49.165Z,30.07
2023-04-27T06:22:16.023Z,28.95
2023-04-27T06:24:43.271Z,29.62
2023-04-27T06:27:10.174Z,29.41
2023-04-27T06:29:37.174Z,29.67
2023-04-27T06:32:04.235Z,28.36
2023-04-27T06:34:31.348Z,28.10
2023-04-27T06:36:58.241Z,27.96
2023-04-27T06:39:25.282Z,28.66
2023-04-27T06:41:52.076Z,27.34
2023-04-27T06:44:19.024Z,28.04
2023-04-27T06:46:46.082Z,28.73
2023-04-27T06:49:13.223Z,27.72
2023-04-27T06:51:40.177Z,27.45
2023-04-27T06:54:07.339Z,27.50
2023-04-27T06:56:34.374Z,26.80
2023-04-27T06:59:01.297Z,25.56
2023-04-27T07:01:28.269Z,25.54
2023-04-27T07:03:55.448Z,25.47
2023-04-27T07:06:22.730Z,25.38
2023-04-27T07:08:49.780Z,25.28
2023-04-27T07:11:16.717Z,25.26
2023-04-27T07:13:43.798Z,25.34
2023-04-27T07:16:10.874Z,24.87
2023-04-27T07:18:37.955Z,26.35
2023-04-27T07:21:05.897Z,25.99
2023-04-27T07:23:32.878Z,25.69
2023-04-27T07:25:59.766Z,24.27
2023-04-27T07:28:28.569Z,24.78
2023-04-27T07:31:14.097Z,25.43
2023-04-27T07:33:41.054Z,25.37
2023-04-27T07:36:08.134Z,24.04
2023-04-27T07:38:35.083Z,23.89
2023-04-27T07:41:02.173Z,23.89
2023-04-27T07:43:29.255Z,24.70
2023-04-27T07:45:56.187Z,23.71
2023-04-27T07:48:23.185Z,23.75
2023-04-27T07:50:50.601Z,25.07
2023-04-27T07:53:17.895Z,24.21
2023-04-27T07:55:47.234Z,24.13
2023-04-27T07:58:14.195Z,23.19
2023-04-27T08:00:41.173Z,23.16
2023-04-27T08:03:08.617Z,23.24
2023-04-27T08:05:36.082Z,23.91
2023-04-27T08:08:03.360Z,24.34
2023-04-27T08:10:30.321Z,24.68
2023-04-27T08:13:15.759Z,25.06
2023-04-27T08:16:01.221Z,24.83
2023-04-27T08:18:28.179Z,24.17
2023-04-27T08:20:55.380Z,24.88
2023-04-27T08:23:40.696Z,25.50
2023-04-27T08:26:07.877Z,24.87
2023-04-27T08:28:56.569Z,24.84
2023-04-27T08:31:24.929Z,25.22
2023-04-27T08:33:52.551Z,23.90
2023-04-27T08:36:23.031Z,23.61
2023-04-27T08:38:51.057Z,23.75
2023-04-27T08:41:22.586Z,24.13
2023-04-27T08:43:52.890Z,23.60
2023-04-27T08:46:24.442Z,22.76
2023-04-27T08:48:52.275Z,24.00
2023-04-27T08:51:20.135Z,23.39
2023-04-27T08:53:53.119Z,24.39
2023-04-27T08:56:20.755Z,24.85
2023-04-27T08:58:47.767Z,24.33
2023-04-27T09:01:15.207Z,24.60
2023-04-27T09:03:42.752Z,24.91
2023-04-27T09:06:09.802Z,25.22
2023-04-27T09:08:50.634Z,25.18
2023-04-27T09:11:30.355Z,25.14
2023-04-27T09:13:59.271Z,25.09
2023-04-27T09:16:27.565Z,25.71
2023-04-27T09:18:56.738Z,25.14
2023-04-27T09:21:30.472Z,25.04
2023-04-27T09:23:57.690Z,25.65
2023-04-27T09:26:27.011Z,25.72
2023-04-27T09:28:56.043Z,25.33
2023-04-27T09:31:31.877Z,25.80
2023-04-27T09:33:59.163Z,26.25
2023-04-27T09:36:26.585Z,25.63
2023-04-27T09:39:12.500Z,25.77
2023-04-27T09:41:39.708Z,26.04
2023-04-27T09:44:08.803Z,25.91
2023-04-27T09:46:36.138Z,26.15
2023-04-27T09:49:05.125Z,26.17
2023-04-27T09:51:32.077Z,25.84
2023-04-27T09:54:03.210Z,25.37
2023-04-27T09:56:56.359Z,25.24
2023-04-27T09:59:55.702Z,25.48
2023-04-27T10:02:25.637Z,25.36
2023-04-27T10:05:29.151Z,25.60
2023-04-27T10:07:56.291Z,24.56
2023-04-27T10:10:23.296Z,25.18
2023-04-27T10:13:02.843Z,24.04
2023-04-27T10:15:32.516Z,23.76
2023-04-27T10:18:05.207Z,23.90
2023-04-27T10:20:37.527Z,23.08
2023-04-27T10:23:04.664Z,22.93
2023-04-27T10:25:42.068Z,23.58
2023-04-27T10:28:16.868Z,23.74
2023-04-27T10:30:46.496Z,22.62
2023-04-27T10:33:17.969Z,22.78
2023-04-27T10:35:54.855Z,23.29
2023-04-27T10:38:27.705Z,24.16
2023-04-27T10:41:00.504Z,24.64
2023-04-27T10:43:29.734Z,23.74
2023-04-27T10:46:14.890Z,24.96
2023-04-27T10:48:47.782Z,24.78
2023-04-27T10:51:18.175Z,24.37
2023-04-27T10:53:45.114Z,24.79
2023-04-27T10:56:12.060Z,24.68
2023-04-27T10:58:48.748Z,24.88
2023-04-27T11:01:28.550Z,25.41
2023-04-27T11:03:57.068Z,25.46
2023-04-27T11:06:24.221Z,24.89
2023-04-27T11:08:51.186Z,24.60
2023-04-27T11:11:18.129Z,23.29
2023-04-27T11:13:45.284Z,23.35
2023-04-27T11:16:12.406Z,23.59
2023-04-27T11:18:39.604Z,23.22
2023-04-27T11:21:09.587Z,23.56
2023-04-27T11:23:39.475Z,24.02
2023-04-27T11:26:16.923Z,24.33
2023-04-27T11:28:45.715Z,23.79
2023-04-27T11:31:15.019Z,23.90
2023-04-27T11:33:51.025Z,23.75
2023-04-27T11:36:22.590Z,23.29
2023-04-27T11:38:49.803Z,23.56
2023-04-27T11:41:16.811Z,23.21
2023-04-27T11:43:44.835Z,23.26
2023-04-27T11:46:11.981Z,23.26
2023-04-27T11:48:40.066Z,21.76
2023-04-27T11:51:10.741Z,22.06
2023-04-27T11:53:39.812Z,21.57
2023-04-27T11:56:08.047Z,23.01
2023-04-27T11:58:36.331Z,22.28
2023-04-27T12:01:34.562Z,23.19
2023-04-27T12:04:04.833Z,21.61
2023-04-27T12:06:33.412Z,21.54
2023-04-27T12:09:00.931Z,22.41
2023-04-27T12:11:28.238Z,21.88
2023-04-27T12:13:56.029Z,21.89
2023-04-27T12:16:23.601Z,22.18
2023-04-27T12:18:50.679Z,22.79
2023-04-27T12:21:36.385Z,22.39
2023-04-27T12:24:03.529Z,22.07
2023-04-27T12:26:30.446Z,21.33
2023-04-27T12:28:57.428Z,21.51
2023-04-27T12:31:26.860Z,21.98
2023-04-27T12:33:54.772Z,22.74
2023-04-27T12:36:40.001Z,22.63
2023-04-27T12:39:20.910Z,22.05
2023-04-27T12:41:49.126Z,21.85
2023-04-27T12:44:17.404Z,22.53
2023-04-27T12:47:03.609Z,22.31
2023-04-27T12:49:30.577Z,22.36
2023-04-27T12:52:15.922Z,22.37
2023-04-27T12:55:01.585Z,21.56
2023-04-27T12:57:28.698Z,22.22
2023-04-27T12:59:57.722Z,21.93
2023-04-27T13:02:27.098Z,21.28
2023-04-27T13:04:54.382Z,21.31
2023-04-27T13:07:39.897Z,21.62
2023-04-27T13:10:25.832Z,21.16
2023-04-27T13:12:52.744Z,21.81
2023-04-27T13:15:19.722Z,22.51
2023-04-27T13:17:46.976Z,22.72
2023-04-27T13:20:32.473Z,22.66
2023-04-27T13:22:59.459Z,22.31
2023-04-27T13:25:26.409Z,22.16
2023-04-27T13:27:53.451Z,22.50
2023-04-27T13:30:20.473Z,23.47
2023-04-27T13:32:47.476Z,22.94
2023-04-27T13:35:33.249Z,22.98
2023-04-27T13:38:03.068Z,23.30
2023-04-27T13:40:48.606Z,23.73
2023-04-27T13:43:15.818Z,24.06
2023-04-27T13:45:42.753Z,24.04
2023-04-27T13:48:09.797Z,23.65
2023-04-27T13:50:36.732Z,24.56
2023-04-27T13:53:06.348Z,24.76
2023-04-27T13:55:33.573Z,24.85
2023-04-27T13:58:00.558Z,25.12
2023-04-27T14:00:27.622Z,24.75
2023-04-27T14:03:13.264Z,24.45
2023-04-27T14:05:40.367Z,24.86
2023-04-27T14:08:26.094Z,24.30
2023-04-27T14:10:53.811Z,24.91
2023-04-27T14:13:20.700Z,24.03
2023-04-27T14:16:06.620Z,24.48
2023-04-27T14:18:52.118Z,24.63
2023-04-27T14:21:19.135Z,24.60
2023-04-27T14:23:46.046Z,24.85
2023-04-27T14:26:13.145Z,24.52
2023-04-27T14:28:40.754Z,24.97
2023-04-27T14:31:07.777Z,25.51
2023-04-27T14:33:34.813Z,25.51
2023-04-27T14:36:01.795Z,25.60
2023-04-27T14:38:46.821Z,25.27
2023-04-27T14:41:13.887Z,24.26
2023-04-27T14:43:41.092Z,25.33
2023-04-27T14:46:19.802Z,29.67
2023-04-27T14:48:48.958Z,33.45
2023-04-27T14:51:16.806Z,35.41
2023-04-27T14:53:44.025Z,36.75
2023-04-27T14:56:11.553Z,38.69
2023-04-27T14:58:38.494Z,39.72
2023-04-27T15:01:24.296Z,38.94
2023-04-27T15:03:51.596Z,40.65
2023-04-27T15:06:18.787Z,40.81
2023-04-27T15:08:46.168Z,41.09
2023-04-27T15:11:13.189Z,41.02
2023-04-27T15:13:40.736Z,41.59
2023-04-27T15:16:07.758Z,42.37
2023-04-27T15:18:37.281Z,42.25
2023-04-27T15:21:04.401Z,43.07
2023-04-27T15:23:31.350Z,43.07
2023-04-27T15:26:17.003Z,42.81
2023-04-27T15:28:45.059Z,43.69
2023-04-27T15:31:12.039Z,43.28
2023-04-27T15:33:38.983Z,43.54
2023-04-27T15:36:06.095Z,43.57
2023-04-27T15:38:51.496Z,43.53
2023-04-27T15:41:18.664Z,43.97
2023-04-27T15:44:04.122Z,43.93
2023-04-27T15:46:31.159Z,43.38
2023-04-27T15:48:58.022Z,44.08
2023-04-27T15:51:25.004Z,43.68
2023-04-27T15:54:10.388Z,43.64
2023-04-27T15:56:37.495Z,43.85
2023-04-27T15:59:04.733Z,43.74
2023-04-27T16:01:31.802Z,43.98
2023-04-27T16:03:58.940Z,44.34
2023-04-27T16:06:34.145Z,43.71
2023-04-27T16:09:01.379Z,44.57
2023-04-27T16:11:46.882Z,44.05
2023-04-27T16:14:32.742Z,43.76
2023-04-27T16:17:02.369Z,44.10
2023-04-27T16:19:29.317Z,44.09
2023-04-27T16:21:56.646Z,43.91
2023-04-27T16:24:25.706Z,44.32
2023-04-27T16:26:52.595Z,44.23
2023-04-27T16:29:19.435Z,44.65
2023-04-27T16:31:50.179Z,44.33
2023-04-27T16:34:17.213Z,44.77
2023-04-27T16:36:44.129Z,44.39
2023-04-27T16:39:11.068Z,44.95
2023-04-27T16:41:37.947Z,44.75
2023-04-27T16:44:05.013Z,44.59
2023-04-27T16:46:32.155Z,44.14
2023-04-27T16:48:59.108Z,43.86
2023-04-27T16:51:25.955Z,43.53
2023-04-27T16:53:52.991Z,43.64
2023-04-27T16:56:30.548Z,43.22
2023-04-27T16:58:57.766Z,43.37
2023-04-27T17:01:25.392Z,42.81
2023-04-27T17:03:52.608Z,42.78
2023-04-27T17:06:19.668Z,42.47
2023-04-27T17:08:46.589Z,43.29
2023-04-27T17:11:13.394Z,43.23
2023-04-27T17:13:40.376Z,43.20
2023-04-27T17:16:07.378Z,42.92
2023-04-27T17:18:34.525Z,43.16
2023-04-27T17:21:01.403Z,42.74
2023-04-27T17:23:28.333Z,43.71
2023-04-27T17:25:56.154Z,43.48
2023-04-27T17:28:23.287Z,43.99
2023-04-27T17:30:51.090Z,44.45
2023-04-27T17:33:18.120Z,43.92
2023-04-27T17:36:00.670Z,43.54
2023-04-27T17:38:27.952Z,43.93
2023-04-27T17:40:54.850Z,44.83
2023-04-27T17:43:25.965Z,43.90
2023-04-27T17:45:53.273Z,44.01
2023-04-27T17:48:20.432Z,44.23
2023-04-27T17:50:47.649Z,44.84
2023-04-27T17:53:14.582Z,44.71
2023-04-27T17:55:43.561Z,44.31
2023-04-27T17:58:11.024Z,44.35
2023-04-27T18:00:38.451Z,44.19
2023-04-27T18:03:05.557Z,44.51
2023-04-27T18:05:33.837Z,44.59
2023-04-27T18:08:02.053Z,44.16
2023-04-27T18:10:29.138Z,45.23
2023-04-27T18:12:56.066Z,45.08
2023-04-27T18:15:23.159Z,45.36
2023-04-27T18:17:50.207Z,45.66
2023-04-27T18:20:17.182Z,45.59
2023-04-27T18:22:44.185Z,45.79
2023-04-27T18:25:11.327Z,46.05
2023-04-27T18:27:38.271Z,46.50
2023-04-27T18:30:06.571Z,47.29
2023-04-27T18:32:34.956Z,47.08
2023-04-27T18:35:02.751Z,47.49
2023-04-27T18:37:30.000Z,46.95
2023-04-27T18:39:57.679Z,46.95
2023-04-27T18:42:24.847Z,46.25
2023-04-27T18:44:54.696Z,46.69
2023-04-27T18:47:21.702Z,47.05
2023-04-27T18:49:48.751Z,47.02
2023-04-27T18:52:15.739Z,46.82
2023-04-27T18:54:43.073Z,47.41
2023-04-27T18:57:09.975Z,47.47
2023-04-27T18:59:38.267Z,47.49
2023-04-27T19:02:06.677Z,47.35
2023-04-27T19:04:34.458Z,47.31
2023-04-27T19:07:02.606Z,46.96
2023-04-27T19:09:29.533Z,47.13
2023-04-27T19:12:02.946Z,48.10
2023-04-27T19:14:32.036Z,48.62
2023-04-27T19:16:59.034Z,48.35
2023-04-27T19:19:26.058Z,48.21
2023-04-27T19:21:52.979Z,48.19
2023-04-27T19:24:20.019Z,48.75
2023-04-27T19:26:47.698Z,47.82
2023-04-27T19:29:48.845Z,47.89
2023-04-27T19:32:15.899Z,47.57
2023-04-27T19:34:42.741Z,47.96
2023-04-27T19:37:09.675Z,48.34
2023-04-27T19:39:36.697Z,47.51
2023-04-27T19:42:03.859Z,47.63
2023-04-27T19:44:30.905Z,47.38
2023-04-27T19:46:57.935Z,47.73
2023-04-27T19:49:24.785Z,48.11
2023-04-27T19:51:51.876Z,48.25
2023-04-27T19:54:18.868Z,47.76
2023-04-27T19:57:04.735Z,48.04
2023-04-27T19:59:31.679Z,47.77
2023-04-27T20:01:58.571Z,48.06
2023-04-27T20:04:25.834Z,48.10
2023-04-27T20:06:52.914Z,48.70
2023-04-27T20:09:19.970Z,47.95
2023-04-27T20:11:46.919Z,47.93
2023-04-27T20:14:14.156Z,47.72
2023-04-27T20:16:41.637Z,47.53
2023-04-27T20:19:08.679Z,47.74
2023-04-27T20:21:35.580Z,47.88
2023-04-27T20:24:02.488Z,47.95
2023-04-27T20:26:29.369Z,47.38
2023-04-27T20:28:56.258Z,47.40
2023-04-27T20:31:23.350Z,47.01
2023-04-27T20:33:50.257Z,46.66
2023-04-27T20:36:18.229Z,46.76
2023-04-27T20:38:46.343Z,46.80
2023-04-27T20:41:13.273Z,46.85
2023-04-27T20:43:40.785Z,46.56
2023-04-27T20:46:08.082Z,47.01
2023-04-27T20:48:35.158Z,46.34
2023-04-27T20:51:02.322Z,46.99
2023-04-27T20:53:29.454Z,46.50
2023-04-27T20:55:56.721Z,46.72
2023-04-27T20:58:23.669Z,46.46
2023-04-27T21:00:50.598Z,46.83
2023-04-27T21:03:17.770Z,46.82
2023-04-27T21:05:45.107Z,46.49
2023-04-27T21:08:12.159Z,46.21
2023-04-27T21:10:39.000Z,46.20
2023-04-27T21:13:05.836Z,46.51
2023-04-27T21:15:32.783Z,46.11
2023-04-27T21:17:59.805Z,46.35
2023-04-27T21:20:27.084Z,46.10
2023-04-27T21:22:53.908Z,46.93
2023-04-27T21:25:23.005Z,46.66
2023-04-27T21:27:50.723Z,46.70
2023-04-27T21:30:17.646Z,46.74
2023-04-27T21:32:44.781Z,46.38
2023-04-27T21:35:11.756Z,47.09
2023-04-27T21:37:38.720Z,47.41
2023-04-27T21:40:06.367Z,47.88
2023-04-27T21:42:33.403Z,47.98
2023-04-27T21:45:00.388Z,48.27
2023-04-27T21:47:27.382Z,48.05
2023-04-27T21:49:54.185Z,48.01
2023-04-27T21:52:21.015Z,48.39
2023-04-27T21:54:47.865Z,48.76
2023-04-27T21:57:14.720Z,48.72
2023-04-27T21:59:41.574Z,49.09
2023-04-27T22:02:08.569Z,49.15
2023-04-27T22:04:38.890Z,48.86
2023-04-27T22:07:07.371Z,48.90
2023-04-27T22:09:34.240Z,49.13
2023-04-27T22:12:01.861Z,49.50
2023-04-27T22:14:29.503Z,49.79
2023-04-27T22:16:56.522Z,49.63
2023-04-27T22:19:23.379Z,49.29
2023-04-27T22:21:50.413Z,49.54
2023-04-27T22:24:17.970Z,49.95
2023-04-27T22:26:45.057Z,50.18
2023-04-27T22:29:12.016Z,50.25
2023-04-27T22:31:39.040Z,50.17
2023-04-27T22:34:06.073Z,50.66
2023-04-27T22:36:33.918Z,50.96
2023-04-27T22:39:00.833Z,50.75
2023-04-27T22:41:27.704Z,51.42
2023-04-27T22:43:54.698Z,50.84
2023-04-27T22:46:21.724Z,50.83
2023-04-27T22:48:49.114Z,51.00
2023-04-27T22:51:16.923Z,51.10
2023-04-27T22:53:43.961Z,51.40
2023-04-27T22:56:11.008Z,51.44
2023-04-27T22:58:37.839Z,51.65
2023-04-27T23:01:04.892Z,51.83
2023-04-27T23:03:32.109Z,51.34
2023-04-27T23:05:59.295Z,51.64
2023-04-27T23:08:26.266Z,52.04
2023-04-27T23:10:53.152Z,52.46
2023-04-27T23:13:20.829Z,52.15
2023-04-27T23:15:48.393Z,52.44
2023-04-27T23:18:15.302Z,52.80
2023-04-27T23:20:42.234Z,52.95
2023-04-27T23:23:09.100Z,54.02
2023-04-27T23:25:36.152Z,53.73
2023-04-27T23:28:03.099Z,53.75
2023-04-27T23:30:30.011Z,53.90
2023-04-27T23:32:57.366Z,53.66
2023-04-27T23:35:26.918Z,53.93
2023-04-27T23:37:53.815Z,54.00
2023-04-27T23:40:20.872Z,54.93
2023-04-27T23:42:49.131Z,55.46
2023-04-27T23:45:17.937Z,56.27
2023-04-27T23:47:44.918Z,57.58
2023-04-27T23:50:11.952Z,57.37
2023-04-27T23:52:38.876Z,57.50
2023-04-27T23:55:06.431Z,57.88
2023-04-27T23:57:33.329Z,58.75
